Time;durP1;ratioP1;P1;durP2;ratioP2;P2;SDS_P1;SDS_P2;PMS_P1;PMS_P2;Temp;Humidity;BMP_temperature;BMP_pressure;BME280_temperature;BME280_humidity;BME280_pressure;Samples;Min_cycle;Max_cycle;Signal;HPM_P1;HPM_P2
2020/12/20 00:00:25;;;;;;;42.95;21.80;;;1.70;99.30;;;;;;5132772;27;20030;-84
2020/12/20 00:02:53;;;;;;;44.03;21.83;;;1.80;99.40;;;;;;5133128;27;20027;-85
2020/12/20 00:05:27;;;;;;;47.67;22.83;;;1.70;99.30;;;;;;5133316;27;20023;-86
2020/12/20 00:07:54;;;;;;;41.85;21.90;;;1.70;99.50;;;;;;5151730;27;20044;-84
2020/12/20 00:10:25;;;;;;;47.67;22.75;;;2.00;99.60;;;;;;5154255;22;20051;-85
2020/12/20 00:12:54;;;;;;;44.28;21.80;;;1.70;99.60;;;;;;5105060;28;20023;-84
2020/12/20 00:15:26;;;;;;;44.45;22.55;;;1.70;99.40;;;;;;5123099;22;20070;-84
2020/12/20 00:18:01;;;;;;;39.78;21.48;;;1.70;99.50;;;;;;5109992;28;20043;-83
2020/12/20 00:20:27;;;;;;;41.33;21.98;;;1.70;99.50;;;;;;5093049;28;20020;-84
2020/12/20 00:22:54;;;;;;;36.28;21.15;;;1.70;99.50;;;;;;5076709;28;20024;-83
2020/12/20 00:25:20;;;;;;;37.05;20.92;;;1.70;99.30;;;;;;5100048;22;20112;-82
2020/12/20 00:28:02;;;;;;;41.78;22.02;;;1.70;99.30;;;;;;5097977;22;20055;-84
2020/12/20 00:30:33;;;;;;;38.53;19.95;;;1.80;99.20;;;;;;5142143;22;20044;-83
2020/12/20 00:33:43;;;;;;;41.53;21.83;;;1.80;99.20;;;;;;5118167;22;20052;-83
2020/12/20 00:36:08;;;;;;;39.72;20.80;;;1.80;99.20;;;;;;5093018;28;20032;-84
2020/12/20 00:38:38;;;;;;;43.55;21.20;;;1.80;99.10;;;;;;5110332;28;20031;-83
2020/12/20 00:41:10;;;;;;;39.55;20.98;;;1.80;99.30;;;;;;5093121;28;20024;-85
2020/12/20 00:43:38;;;;;;;44.55;21.70;;;2.00;99.20;;;;;;5104362;22;20028;-82
2020/12/20 00:46:04;;;;;;;40.80;20.48;;;1.80;99.30;;;;;;5113446;22;20034;-83
2020/12/20 00:48:34;;;;;;;45.83;22.15;;;1.80;99.10;;;;;;5093749;28;20036;-84
2020/12/20 00:51:05;;;;;;;42.33;21.83;;;1.80;99.20;;;;;;5094914;28;20092;-83
2020/12/20 00:53:39;;;;;;;40.72;22.02;;;1.80;99.10;;;;;;5095728;28;20038;-82
2020/12/20 00:56:09;;;;;;;38.85;20.23;;;1.80;99.20;;;;;;5096313;28;20032;-85
2020/12/20 00:58:41;;;;;;;46.78;21.48;;;1.80;99.20;;;;;;5096483;28;20031;-84
2020/12/20 01:01:09;;;;;;;41.47;20.98;;;1.80;99.30;;;;;;5096276;28;20036;-85
2020/12/20 01:03:40;;;;;;;42.88;21.38;;;1.70;99.20;;;;;;5114111;28;20054;-83
2020/12/20 01:06:05;;;;;;;46.80;20.85;;;1.80;99.40;;;;;;5096644;28;20028;-84
2020/12/20 01:08:48;;;;;;;45.10;21.33;;;1.80;99.50;;;;;;5113924;28;20032;-86
2020/12/20 01:11:22;;;;;;;34.50;19.63;;;1.80;99.50;;;;;;5112701;28;20028;-83
2020/12/20 01:13:50;;;;;;;36.72;20.80;;;1.80;99.20;;;;;;5121274;22;20083;-84
2020/12/20 01:16:31;;;;;;;35.13;19.33;;;1.90;99.00;;;;;;5113174;28;20020;-84
2020/12/20 01:18:59;;;;;;;38.85;20.38;;;1.80;99.00;;;;;;5095694;28;20508;-84
2020/12/20 01:21:32;;;;;;;43.22;20.08;;;1.80;99.20;;;;;;5096067;28;20029;-83
2020/12/20 01:23:58;;;;;;;35.28;19.08;;;1.80;99.40;;;;;;5095267;28;20039;-83
2020/12/20 01:26:28;;;;;;;37.30;19.15;;;1.80;99.20;;;;;;5078535;28;20024;-83
2020/12/20 01:29:02;;;;;;;35.95;18.33;;;1.80;99.30;;;;;;5113984;28;20036;-83
2020/12/20 01:31:33;;;;;;;34.60;19.27;;;1.80;99.20;;;;;;5095921;28;20091;-84
2020/12/20 01:34:02;;;;;;;31.60;18.83;;;1.80;99.10;;;;;;5110469;22;20040;-84
2020/12/20 01:36:32;;;;;;;35.25;18.67;;;1.80;99.10;;;;;;5092143;28;20041;-84
2020/12/20 01:39:14;;;;;;;33.28;17.90;;;1.90;99.30;;;;;;5093715;28;20036;-84
2020/12/20 01:41:55;;;;;;;;;;;1.90;98.70;;;;;;5102985;22;20056;-84
2020/12/20 01:44:25;;;;;;;29.65;15.68;;;2.00;98.30;;;;;;5113699;28;19916;-83
2020/12/20 01:46:54;;;;;;;33.78;18.50;;;2.40;98.10;;;;;;5096831;28;20042;-86
2020/12/20 01:49:20;;;;;;;35.13;18.63;;;1.90;98.40;;;;;;5102802;22;20067;-82
2020/12/20 01:51:51;;;;;;;33.50;18.55;;;2.00;98.50;;;;;;5113625;28;20103;-84
2020/12/20 01:54:20;;;;;;;34.75;18.95;;;1.90;98.70;;;;;;5119143;22;20040;-83
2020/12/20 01:56:59;;;;;;;36.45;19.33;;;1.80;99.00;;;;;;5136881;22;20048;-83
2020/12/20 01:59:25;;;;;;;35.45;18.75;;;1.80;99.00;;;;;;5094517;28;20026;-84
2020/12/20 02:01:51;;;;;;;34.63;17.42;;;2.20;99.00;;;;;;5095379;28;20020;-82
2020/12/20 02:04:17;;;;;;;34.47;18.55;;;2.00;99.00;;;;;;5113395;28;20054;-84
2020/12/20 02:07:00;;;;;;;30.15;17.52;;;2.00;98.90;;;;;;5113260;28;20043;-83
2020/12/20 02:09:29;;;;;;;34.90;19.52;;;1.80;98.80;;;;;;5095019;28;20039;-83
2020/12/20 02:12:03;;;;;;;32.08;17.90;;;2.00;98.80;;;;;;5120113;22;20052;-83
2020/12/20 02:14:39;;;;;;;35.05;20.48;;;1.90;98.90;;;;;;5101278;22;20052;-82
2020/12/20 02:17:16;;;;;;;34.88;19.40;;;1.80;98.90;;;;;;5100714;22;20048;-84
2020/12/20 02:19:42;;;;;;;35.80;18.83;;;1.80;99.00;;;;;;5072880;28;20124;-84
2020/12/20 02:22:10;;;;;;;36.05;19.17;;;1.80;99.10;;;;;;5091339;28;20100;-83
2020/12/20 02:24:38;;;;;;;34.80;18.48;;;1.80;99.00;;;;;;5074657;28;20047;-83
2020/12/20 02:27:19;;;;;;;34.72;19.23;;;1.80;99.00;;;;;;5090520;28;20029;-84
2020/12/20 02:29:48;;;;;;;36.95;19.00;;;1.80;98.90;;;;;;5091342;28;20040;-85
2020/12/20 02:32:16;;;;;;;40.53;20.92;;;1.80;99.10;;;;;;5090553;22;20040;-85
2020/12/20 02:34:43;;;;;;;39.40;20.02;;;1.80;99.10;;;;;;5111042;28;20055;-85
2020/12/20 02:37:09;;;;;;;38.83;20.38;;;1.80;99.10;;;;;;5093350;28;20035;-84
2020/12/20 02:39:44;;;;;;;40.65;20.17;;;1.80;99.10;;;;;;5100762;22;20116;-84
2020/12/20 02:42:15;;;;;;;35.67;19.35;;;1.80;99.20;;;;;;5093020;28;20020;-83
2020/12/20 02:44:41;;;;;;;34.58;18.90;;;1.80;99.00;;;;;;5101446;22;20075;-85
2020/12/20 02:47:10;;;;;;;32.42;19.25;;;1.90;98.90;;;;;;5113589;28;20027;-84
2020/12/20 02:49:36;;;;;;;37.22;20.50;;;1.90;98.90;;;;;;5096280;28;20043;-83
2020/12/20 02:52:05;;;;;;;35.55;20.55;;;1.80;98.70;;;;;;5113823;28;20027;-84
2020/12/20 02:54:32;;;;;;;32.05;18.85;;;1.90;99.00;;;;;;5132007;28;20030;-84
2020/12/20 02:57:01;;;;;;;33.70;18.90;;;1.80;99.00;;;;;;5114554;28;20063;-83
2020/12/20 02:59:36;;;;;;;33.50;19.25;;;1.90;99.00;;;;;;5128816;28;20032;-83
2020/12/20 03:02:03;;;;;;;34.58;19.77;;;1.90;99.00;;;;;;5112540;28;20034;-84
2020/12/20 03:04:31;;;;;;;33.90;19.10;;;1.90;99.00;;;;;;5112823;28;20102;-85
2020/12/20 03:06:58;;;;;;;34.58;19.73;;;1.90;98.80;;;;;;5112715;28;20027;-84
2020/12/20 03:09:24;;;;;;;32.53;17.85;;;2.10;98.90;;;;;;5132046;22;20056;-83
2020/12/20 03:11:53;;;;;;;37.67;19.27;;;1.80;98.80;;;;;;5109256;28;20037;-84
2020/12/20 03:14:20;;;;;;;37.05;18.85;;;1.80;98.60;;;;;;5093772;28;20115;-85
2020/12/20 03:16:46;;;;;;;37.28;20.40;;;1.80;99.00;;;;;;5091502;28;20030;-84
2020/12/20 03:19:17;;;;;;;36.70;19.80;;;1.80;98.80;;;;;;5072678;28;20482;-84
2020/12/20 03:21:47;;;;;;;32.75;19.02;;;1.80;98.90;;;;;;5109819;28;20038;-84
2020/12/20 03:24:15;;;;;;;34.65;19.63;;;2.00;99.10;;;;;;5115216;22;20044;-83
2020/12/20 03:26:40;;;;;;;33.80;19.70;;;1.80;99.30;;;;;;5108877;22;20048;-82
2020/12/20 03:29:11;;;;;;;34.63;18.70;;;1.80;99.10;;;;;;5113555;22;20052;-83
2020/12/20 03:31:37;;;;;;;32.03;18.77;;;2.00;99.00;;;;;;5110506;22;20146;-83
2020/12/20 03:34:03;;;;;;;30.38;18.98;;;1.90;98.70;;;;;;5106150;28;20058;-83
2020/12/20 03:36:31;;;;;;;34.17;19.33;;;1.80;98.70;;;;;;5105673;28;20032;-84
2020/12/20 03:39:00;;;;;;;33.72;20.10;;;1.90;98.60;;;;;;5104949;28;20031;-85
2020/12/20 03:41:25;;;;;;;33.30;19.38;;;1.90;98.60;;;;;;5105116;28;20027;-85
2020/12/20 03:43:51;;;;;;;30.55;19.05;;;2.20;98.70;;;;;;5104108;28;20032;-83
2020/12/20 03:46:17;;;;;;;35.55;19.75;;;1.80;98.50;;;;;;5103827;28;20035;-83
2020/12/20 03:48:42;;;;;;;29.67;18.80;;;1.80;98.60;;;;;;5105614;28;20040;-86
2020/12/20 03:51:08;;;;;;;29.17;18.40;;;1.90;98.70;;;;;;5106294;28;20028;-83
2020/12/20 03:53:35;;;;;;;29.85;17.90;;;1.80;98.60;;;;;;5104231;28;20027;-84
2020/12/20 03:56:04;;;;;;;32.00;18.63;;;1.80;98.70;;;;;;5106078;28;20050;-85
2020/12/20 03:58:39;;;;;;;27.90;17.85;;;2.10;98.70;;;;;;5088337;28;20563;-84
2020/12/20 04:01:05;;;;;;;28.83;18.25;;;1.90;98.60;;;;;;5090727;28;20028;-85
2020/12/20 04:03:30;;;;;;;29.88;17.70;;;1.90;98.50;;;;;;5090551;28;20051;-83
2020/12/20 04:05:57;;;;;;;31.75;19.83;;;1.90;98.60;;;;;;5094191;22;20051;-83
2020/12/20 04:08:23;;;;;;;28.92;18.63;;;1.80;98.60;;;;;;5080175;28;20036;-83
2020/12/20 04:10:49;;;;;;;35.60;19.80;;;1.80;98.60;;;;;;5086445;22;20048;-84
2020/12/20 04:13:20;;;;;;;28.85;18.10;;;1.80;98.80;;;;;;5090238;28;20474;-85
2020/12/20 04:15:48;;;;;;;29.52;18.05;;;1.80;98.70;;;;;;5089343;28;20020;-84
2020/12/20 04:18:17;;;;;;;27.60;17.45;;;1.80;98.60;;;;;;5097052;22;20051;-85
2020/12/20 04:20:43;;;;;;;30.88;18.15;;;1.90;98.60;;;;;;5096796;22;20036;-84
2020/12/20 04:23:10;;;;;;;33.53;18.02;;;2.10;98.60;;;;;;5088647;28;20039;-85
2020/12/20 04:25:37;;;;;;;28.80;16.70;;;1.90;98.50;;;;;;5089328;28;20098;-83
2020/12/20 04:28:04;;;;;;;28.75;18.17;;;1.90;98.50;;;;;;5081780;28;20025;-84
2020/12/20 04:30:31;;;;;;;33.45;17.75;;;1.80;98.60;;;;;;5069221;28;20060;-83
2020/12/20 04:32:59;;;;;;;31.92;19.63;;;1.80;98.70;;;;;;5081699;22;20052;-83
2020/12/20 04:35:24;;;;;;;30.23;18.30;;;1.80;98.90;;;;;;5086468;28;20036;-84
2020/12/20 04:37:50;;;;;;;30.50;18.88;;;1.70;98.80;;;;;;5106222;28;20032;-84
2020/12/20 04:40:21;;;;;;;33.75;18.88;;;1.80;98.80;;;;;;5087857;28;20025;-83
2020/12/20 04:42:48;;;;;;;27.13;16.33;;;1.80;98.80;;;;;;5086687;28;20028;-83
2020/12/20 04:45:16;;;;;;;28.52;17.60;;;1.80;98.80;;;;;;5070918;28;20603;-84
2020/12/20 04:47:48;;;;;;;31.50;17.77;;;1.70;98.90;;;;;;5088190;28;20024;-83
2020/12/20 04:50:16;;;;;;;29.70;17.67;;;1.80;98.90;;;;;;5089707;28;20039;-84
2020/12/20 04:52:50;;;;;;;29.55;18.23;;;1.90;98.80;;;;;;5090100;28;20024;-83
2020/12/20 04:55:16;;;;;;;29.70;18.15;;;1.80;98.80;;;;;;5088383;28;20034;-84
2020/12/20 04:57:45;;;;;;;28.52;16.88;;;2.00;98.80;;;;;;5087562;28;20024;-83
2020/12/20 05:00:17;;;;;;;24.85;15.82;;;1.80;98.80;;;;;;5086530;28;20017;-83
2020/12/20 05:02:45;;;;;;;25.35;16.38;;;1.80;98.50;;;;;;5070449;28;20355;-84
2020/12/20 05:05:11;;;;;;;26.10;15.35;;;1.80;98.60;;;;;;5105220;28;20139;-85
2020/12/20 05:07:37;;;;;;;26.23;15.60;;;1.80;98.60;;;;;;5087590;28;20028;-84
2020/12/20 05:10:05;;;;;;;25.48;16.58;;;1.80;98.50;;;;;;5104385;28;20032;-84
2020/12/20 05:12:34;;;;;;;27.65;17.45;;;1.80;98.60;;;;;;5086709;28;20059;-83
2020/12/20 05:15:16;;;;;;;23.67;15.30;;;1.80;98.70;;;;;;5070560;28;20051;-82
2020/12/20 05:17:45;;;;;;;23.05;14.13;;;1.90;98.60;;;;;;5085239;28;20024;-83
2020/12/20 05:20:14;;;;;;;23.00;14.63;;;1.80;98.60;;;;;;5100501;28;20035;-83
2020/12/20 05:22:40;;;;;;;26.60;14.25;;;1.80;98.70;;;;;;5086107;28;20020;-84
2020/12/20 05:25:17;;;;;;;23.85;14.73;;;1.80;98.70;;;;;;5084906;28;20028;-84
2020/12/20 05:27:44;;;;;;;24.50;14.77;;;1.80;98.60;;;;;;5103215;28;20021;-84
2020/12/20 05:30:17;;;;;;;22.95;14.63;;;1.90;98.50;;;;;;5085889;28;20127;-84
2020/12/20 05:32:44;;;;;;;24.05;14.38;;;1.80;98.40;;;;;;5085919;28;20495;-83
2020/12/20 05:35:12;;;;;;;20.38;12.85;;;1.80;98.40;;;;;;5085895;28;20028;-84
2020/12/20 05:37:40;;;;;;;22.58;13.63;;;2.20;98.60;;;;;;5090921;28;20026;-83
2020/12/20 05:40:10;;;;;;;18.17;11.68;;;1.90;98.50;;;;;;5095908;28;20044;-84
2020/12/20 05:42:38;;;;;;;16.75;11.10;;;2.00;98.70;;;;;;5111123;28;20035;-85
2020/12/20 06:51:31;;;;;;;10.48;8.02;;;1.80;97.70;;;;;;5485118;22;20104;-84
2020/12/20 07:33:08;;;;;;;13.35;8.50;;;1.90;97.40;;;;;;5846798;22;20052;-84
2020/12/20 07:36:00;;;;;;;15.88;9.98;;;1.90;97.70;;;;;;5112965;23;20071;-84
2020/12/20 07:41:18;;;;;;;14.38;10.00;;;2.00;97.60;;;;;;5130985;28;20031;-86
2020/12/20 07:54:32;;;;;;;15.23;9.20;;;2.10;97.00;;;;;;5593648;22;20048;-84
2020/12/20 08:03:15;;;;;;;11.00;7.97;;;2.10;96.80;;;;;;5037666;28;20076;-84
2020/12/20 08:08:45;;;;;;;9.40;7.30;;;2.10;96.90;;;;;;5185013;22;20035;-84
2020/12/20 08:19:02;;;;;;;9.10;7.15;;;2.20;95.90;;;;;;5123087;28;20043;-84
2020/12/20 08:21:38;;;;;;;8.55;6.50;;;2.20;95.30;;;;;;5114293;28;20463;-83
2020/12/20 08:24:04;;;;;;;9.93;7.05;;;2.20;94.20;;;;;;5114403;28;20110;-83
2020/12/20 08:26:31;;;;;;;8.75;6.78;;;2.30;93.90;;;;;;5114699;28;20032;-82
2020/12/20 08:28:58;;;;;;;11.07;8.15;;;2.30;94.30;;;;;;5114534;28;20073;-84
2020/12/20 08:31:29;;;;;;;11.65;8.52;;;2.30;94.80;;;;;;5113918;28;20027;-83
2020/12/20 08:33:55;;;;;;;13.23;9.85;;;2.30;95.20;;;;;;5114343;28;20043;-83
2020/12/20 08:36:21;;;;;;;12.32;10.23;;;2.20;94.90;;;;;;5114208;28;20028;-82
2020/12/20 08:38:48;;;;;;;11.60;8.50;;;2.20;93.90;;;;;;5114662;28;20028;-83
2020/12/20 08:41:29;;;;;;;11.55;8.73;;;2.20;94.40;;;;;;5114241;28;20020;-82
2020/12/20 08:44:03;;;;;;;10.90;7.78;;;2.20;95.00;;;;;;5113702;28;20110;-81
2020/12/20 08:46:31;;;;;;;9.97;7.00;;;2.20;93.90;;;;;;5113767;28;20424;-83
2020/12/20 08:49:20;;;;;;;13.88;7.97;;;2.20;93.70;;;;;;5113594;28;20058;-79
2020/12/20 08:51:49;;;;;;;11.25;8.43;;;2.20;94.00;;;;;;5118879;28;20050;-83
2020/12/20 08:54:28;;;;;;;11.15;8.23;;;2.20;94.50;;;;;;5118803;28;20019;-84
2020/12/20 08:56:58;;;;;;;12.50;9.10;;;2.30;94.70;;;;;;5119850;28;20034;-83
2020/12/20 08:59:25;;;;;;;11.52;8.65;;;2.20;94.70;;;;;;5114109;28;20073;-79
2020/12/20 09:01:52;;;;;;;15.15;10.32;;;2.20;94.90;;;;;;5113771;28;20028;-80
2020/12/20 09:04:17;;;;;;;15.13;10.90;;;2.30;94.50;;;;;;5113514;28;20103;-79
2020/12/20 09:07:06;;;;;;;38.05;27.00;;;2.20;93.70;;;;;;5112733;28;20070;-81
2020/12/20 09:09:32;;;;;;;130.45;63.22;;;2.30;94.20;;;;;;5114622;28;20032;-79
2020/12/20 09:12:15;;;;;;;144.30;77.57;;;2.30;93.80;;;;;;5116149;28;20027;-80
2020/12/20 09:14:57;;;;;;;40.63;25.48;;;2.30;94.10;;;;;;5116307;28;20032;-79
2020/12/20 09:17:35;;;;;;;30.08;23.10;;;2.40;93.90;;;;;;5115763;28;20511;-77
2020/12/20 09:20:01;;;;;;;13.65;8.65;;;2.40;94.20;;;;;;5115666;28;20024;-78
2020/12/20 09:22:53;;;;;;;10.38;7.05;;;2.40;94.30;;;;;;5116209;28;20023;-79
2020/12/20 09:25:31;;;;;;;8.82;6.93;;;2.40;93.80;;;;;;5116685;28;20027;-82
2020/12/20 09:27:59;;;;;;;10.73;8.10;;;2.40;93.80;;;;;;5115991;28;20160;-79
2020/12/20 09:30:58;;;;;;;11.23;8.18;;;2.50;93.90;;;;;;5116362;28;20398;-79
2020/12/20 09:33:30;;;;;;;11.68;7.75;;;2.50;94.60;;;;;;5064830;28;20390;-83
2020/12/20 09:36:12;;;;;;;12.77;7.75;;;2.40;94.60;;;;;;5119107;28;20024;-83
2020/12/20 09:38:47;;;;;;;9.82;7.63;;;2.40;94.70;;;;;;5118230;28;20119;-84
2020/12/20 09:41:20;;;;;;;10.93;7.60;;;2.40;94.50;;;;;;5119436;28;20030;-85
2020/12/20 09:43:48;;;;;;;12.93;8.07;;;2.50;93.10;;;;;;5118517;28;20097;-84
2020/12/20 09:46:21;;;;;;;12.27;8.50;;;2.50;93.70;;;;;;5118695;28;20023;-83
2020/12/20 09:48:48;;;;;;;10.85;7.60;;;2.40;93.70;;;;;;5118502;28;20476;-82
2020/12/20 09:51:15;;;;;;;9.68;7.07;;;2.40;93.70;;;;;;5118983;28;20114;-83
2020/12/20 09:53:40;;;;;;;11.75;8.82;;;2.50;94.10;;;;;;5121925;28;20024;-83
2020/12/20 09:56:52;;;;;;;11.13;7.95;;;2.50;93.80;;;;;;5129730;28;20035;-85
2020/12/20 10:01:56;;;;;;;14.85;8.95;;;2.60;94.20;;;;;;5107044;28;20059;-84
2020/12/20 10:07:34;;;;;;;16.35;11.90;;;2.60;93.90;;;;;;5266515;22;20036;-84
2020/12/20 10:10:22;;;;;;;13.00;9.15;;;2.50;94.00;;;;;;5109393;28;20067;-85
2020/12/20 10:12:48;;;;;;;14.50;9.68;;;2.60;93.70;;;;;;5081901;28;20035;-80
2020/12/20 10:15:13;;;;;;;14.30;9.82;;;2.60;94.10;;;;;;5099175;28;20055;-84
2020/12/20 10:17:39;;;;;;;14.23;10.52;;;2.60;94.10;;;;;;5116560;28;20028;-80
2020/12/20 10:20:05;;;;;;;13.70;10.18;;;2.60;94.10;;;;;;5098707;28;20471;-78
2020/12/20 10:22:30;;;;;;;13.55;9.27;;;2.60;93.70;;;;;;5098810;28;20080;-84
2020/12/20 10:24:56;;;;;;;15.30;9.35;;;2.50;93.60;;;;;;5098754;28;20031;-78
2020/12/20 10:27:22;;;;;;;21.50;13.20;;;2.40;93.90;;;;;;5100596;28;20045;-79
2020/12/20 10:29:48;;;;;;;13.68;9.55;;;3.60;99.90;;;;;;5116922;28;20158;-79
2020/12/20 10:32:13;;;;;;;18.33;11.45;;;3.50;93.80;;;;;;5101915;28;20091;-84
2020/12/20 10:34:40;;;;;;;21.30;15.32;;;3.40;96.60;;;;;;5103861;28;20023;-84
2020/12/20 10:37:06;;;;;;;12.20;9.15;;;3.20;92.80;;;;;;5109818;28;20039;-84
2020/12/20 10:39:32;;;;;;;12.75;8.98;;;3.20;92.50;;;;;;5106948;28;20031;-84
2020/12/20 10:41:58;;;;;;;11.93;8.60;;;3.00;93.10;;;;;;5112600;28;20158;-84
2020/12/20 10:44:24;;;;;;;11.27;7.88;;;2.90;93.30;;;;;;5105619;28;20168;-82
2020/12/20 10:46:53;;;;;;;11.10;8.45;;;3.00;93.30;;;;;;5119399;28;20073;-81
2020/12/20 10:49:20;;;;;;;9.93;7.97;;;3.00;93.40;;;;;;5111315;28;20034;-85
2020/12/20 10:51:54;;;;;;;18.25;11.32;;;3.10;93.30;;;;;;5104814;28;20038;-82
2020/12/20 10:54:28;;;;;;;10.30;6.93;;;3.20;99.60;;;;;;5099189;28;20028;-78
2020/12/20 10:56:57;;;;;;;9.70;6.97;;;3.20;93.20;;;;;;5098695;28;20059;-79
2020/12/20 10:59:23;;;;;;;12.95;7.53;;;3.10;92.40;;;;;;5100012;28;20055;-79
2020/12/20 11:01:49;;;;;;;9.68;6.90;;;3.80;96.50;;;;;;5098204;28;20034;-79
2020/12/20 11:04:15;;;;;;;13.13;9.27;;;3.40;91.20;;;;;;5097832;28;20019;-79
2020/12/20 11:06:41;;;;;;;10.27;7.32;;;3.20;92.20;;;;;;5117026;28;20031;-79
2020/12/20 11:09:06;;;;;;;10.98;7.90;;;3.20;92.50;;;;;;5098968;28;20068;-79
2020/12/20 11:11:32;;;;;;;10.23;7.80;;;3.00;92.10;;;;;;5100540;28;20041;-79
2020/12/20 11:13:58;;;;;;;10.90;7.90;;;2.80;92.60;;;;;;5099385;28;20028;-79
2020/12/20 11:16:25;;;;;;;14.15;10.00;;;2.90;93.00;;;;;;5097181;28;20032;-79
2020/12/20 11:18:50;;;;;;;12.75;8.68;;;2.80;93.30;;;;;;5099153;28;20470;-83
2020/12/20 11:21:19;;;;;;;12.68;8.88;;;2.70;93.70;;;;;;5116215;28;20026;-79
2020/12/20 11:23:47;;;;;;;12.55;8.65;;;2.70;94.00;;;;;;5098152;28;20081;-81
2020/12/20 11:26:16;;;;;;;10.20;8.15;;;2.70;93.60;;;;;;5101602;28;20024;-85
2020/12/20 11:28:43;;;;;;;13.95;9.45;;;2.70;93.90;;;;;;5099307;28;20023;-84
2020/12/20 11:31:11;;;;;;;11.73;8.27;;;2.70;93.90;;;;;;5098380;28;20032;-82
2020/12/20 11:33:38;;;;;;;12.63;8.52;;;2.70;93.70;;;;;;5114963;28;20020;-83
2020/12/20 11:36:04;;;;;;;12.05;9.02;;;2.70;94.00;;;;;;5097691;28;20019;-82
2020/12/20 11:38:30;;;;;;;14.10;9.20;;;2.60;94.40;;;;;;5097281;28;20470;-82
2020/12/20 11:40:56;;;;;;;13.68;9.48;;;2.70;94.00;;;;;;5097688;28;20092;-82
2020/12/20 11:43:22;;;;;;;15.35;10.45;;;2.60;94.20;;;;;;5097637;28;20036;-81
2020/12/20 11:45:48;;;;;;;13.05;9.38;;;2.70;94.00;;;;;;5096996;28;20020;-79
2020/12/20 11:48:14;;;;;;;15.38;10.80;;;2.60;94.20;;;;;;5093578;28;20031;-78
2020/12/20 11:50:40;;;;;;;13.70;8.82;;;2.70;94.10;;;;;;5092598;28;20445;-80
2020/12/20 11:53:06;;;;;;;16.83;10.23;;;2.70;93.90;;;;;;5092778;28;20028;-83
2020/12/20 11:55:32;;;;;;;13.25;9.00;;;2.70;93.80;;;;;;5093041;28;20036;-79
2020/12/20 11:57:58;;;;;;;12.88;10.73;;;2.50;93.90;;;;;;5094111;28;20039;-79
2020/12/20 12:00:25;;;;;;;11.10;7.90;;;2.60;93.90;;;;;;5094633;28;20359;-79
2020/12/20 12:02:52;;;;;;;9.70;7.38;;;2.60;93.60;;;;;;5096115;28;20054;-79
2020/12/20 12:05:17;;;;;;;10.55;8.23;;;2.80;93.80;;;;;;5096044;28;20031;-80
2020/12/20 12:07:43;;;;;;;9.32;7.28;;;2.60;93.60;;;;;;5096012;28;20043;-79
2020/12/20 12:10:09;;;;;;;10.68;7.20;;;2.80;93.50;;;;;;5095891;28;20032;-79
2020/12/20 12:12:34;;;;;;;10.90;7.32;;;2.70;93.30;;;;;;5095941;28;20030;-79
2020/12/20 12:15:00;;;;;;;9.77;6.95;;;2.60;92.80;;;;;;5114072;28;20031;-81
2020/12/20 12:17:26;;;;;;;8.65;6.03;;;2.80;92.80;;;;;;5096256;28;20023;-79
2020/12/20 12:19:52;;;;;;;9.15;6.68;;;2.70;93.00;;;;;;5096057;28;20020;-80
2020/12/20 12:22:18;;;;;;;20.23;11.45;;;2.70;92.70;;;;;;5095992;28;20530;-81
2020/12/20 12:24:43;;;;;;;15.57;10.27;;;2.60;92.70;;;;;;5095534;28;20023;-78
2020/12/20 12:27:09;;;;;;;11.82;8.38;;;2.60;92.90;;;;;;5095938;28;20030;-79
2020/12/20 12:29:35;;;;;;;9.82;8.10;;;2.60;92.90;;;;;;5096023;28;20569;-80
2020/12/20 12:32:00;;;;;;;11.80;7.95;;;2.70;92.80;;;;;;5095826;28;20377;-79
2020/12/20 12:34:27;;;;;;;11.52;7.85;;;2.60;92.90;;;;;;5113488;28;20096;-79
2020/12/20 12:36:53;;;;;;;13.60;9.63;;;2.80;92.70;;;;;;5095195;28;20599;-79
2020/12/20 12:39:19;;;;;;;10.35;7.13;;;2.80;92.50;;;;;;5095463;28;20055;-79
2020/12/20 12:41:44;;;;;;;9.65;7.32;;;2.70;92.20;;;;;;5095296;28;20124;-78
2020/12/20 12:44:10;;;;;;;10.48;8.15;;;2.60;92.30;;;;;;5096823;28;20106;-79
2020/12/20 12:46:36;;;;;;;11.50;8.73;;;2.90;92.60;;;;;;5099568;28;20126;-79
2020/12/20 12:49:02;;;;;;;11.50;8.40;;;2.60;92.50;;;;;;5099074;28;20023;-81
2020/12/20 12:51:28;;;;;;;10.60;7.80;;;2.50;93.00;;;;;;5099151;28;20024;-79
2020/12/20 12:53:54;;;;;;;10.45;7.20;;;2.50;93.30;;;;;;5099872;28;20513;-79
2020/12/20 12:56:20;;;;;;;10.13;7.47;;;2.60;93.10;;;;;;5099232;28;20012;-79
2020/12/20 12:58:46;;;;;;;11.60;7.78;;;2.50;93.00;;;;;;5099730;28;20481;-79
2020/12/20 13:01:11;;;;;;;10.43;7.90;;;2.60;92.90;;;;;;5117286;28;20055;-79
2020/12/20 13:03:38;;;;;;;10.00;7.28;;;2.60;93.10;;;;;;5098931;28;20030;-78
2020/12/20 13:06:04;;;;;;;9.95;7.20;;;2.70;93.10;;;;;;5098929;28;20028;-80
2020/12/20 13:08:29;;;;;;;9.57;7.20;;;2.60;92.50;;;;;;5098731;28;20039;-79
2020/12/20 13:10:55;;;;;;;10.98;8.00;;;2.60;93.10;;;;;;5099289;28;20524;-79
2020/12/20 13:13:21;;;;;;;17.38;12.70;;;2.60;93.00;;;;;;5098815;28;20028;-78
2020/12/20 13:15:47;;;;;;;16.25;11.20;;;2.80;93.00;;;;;;5099015;28;20530;-80
2020/12/20 13:18:13;;;;;;;20.10;13.75;;;2.60;92.80;;;;;;5097910;28;20027;-78
2020/12/20 13:20:39;;;;;;;33.88;23.73;;;2.60;93.20;;;;;;5097977;28;20084;-79
2020/12/20 13:23:04;;;;;;;18.75;13.85;;;2.70;95.70;;;;;;5096739;28;20020;-84
2020/12/20 13:25:31;;;;;;;10.40;7.82;;;2.80;93.80;;;;;;5116080;28;20023;-79
2020/12/20 13:27:57;;;;;;;15.45;11.30;;;2.80;93.30;;;;;;5097984;28;20017;-79
2020/12/20 13:30:23;;;;;;;13.38;9.50;;;2.80;92.80;;;;;;5116760;28;20028;-83
2020/12/20 13:32:49;;;;;;;9.98;7.15;;;3.10;93.00;;;;;;5101192;28;20027;-84
2020/12/20 13:35:14;;;;;;;14.50;9.38;;;2.80;92.60;;;;;;5101315;28;20028;-84
2020/12/20 13:37:40;;;;;;;12.18;7.72;;;2.70;92.80;;;;;;5099981;28;20034;-82
2020/12/20 13:40:09;;;;;;;27.77;17.85;;;2.70;92.90;;;;;;5100888;28;20099;-84
2020/12/20 13:42:35;;;;;;;12.18;8.55;;;2.60;93.00;;;;;;5104648;28;20020;-84
2020/12/20 13:45:01;;;;;;;11.98;8.77;;;2.70;92.80;;;;;;5102346;28;20024;-84
2020/12/20 13:47:26;;;;;;;10.27;7.50;;;2.70;92.90;;;;;;5102176;28;20020;-83
2020/12/20 13:49:52;;;;;;;12.23;8.10;;;2.60;92.90;;;;;;5104136;28;20043;-83
2020/12/20 13:52:18;;;;;;;11.23;8.32;;;2.50;93.40;;;;;;5102294;28;20031;-81
2020/12/20 13:54:48;;;;;;;17.70;11.10;;;2.50;93.40;;;;;;5117230;28;20028;-82
2020/12/20 13:57:15;;;;;;;13.93;7.40;;;2.50;93.50;;;;;;5100020;28;20023;-82
2020/12/20 13:59:41;;;;;;;13.23;9.68;;;2.50;93.70;;;;;;5101453;28;20168;-78
2020/12/20 14:02:07;;;;;;;10.45;7.53;;;2.40;93.80;;;;;;5117330;28;20102;-79
2020/12/20 14:04:35;;;;;;;11.77;8.45;;;2.40;93.90;;;;;;5097848;28;20037;-83
2020/12/20 14:07:01;;;;;;;20.73;14.63;;;2.40;93.80;;;;;;5100209;28;20023;-83
2020/12/20 14:09:26;;;;;;;14.25;9.35;;;2.40;94.30;;;;;;5099462;28;20048;-81
2020/12/20 14:11:54;;;;;;;11.50;8.20;;;2.50;94.20;;;;;;5117841;28;20048;-84
2020/12/20 14:14:20;;;;;;;10.48;7.60;;;2.40;94.10;;;;;;5116877;28;20462;-84
2020/12/20 14:16:53;;;;;;;11.25;7.40;;;3.60;99.90;;;;;;5117127;28;20047;-83
2020/12/20 14:19:19;;;;;;;11.60;8.52;;;3.40;95.60;;;;;;5115490;28;20038;-82
2020/12/20 14:21:46;;;;;;;13.15;8.48;;;3.20;93.50;;;;;;5115179;28;20478;-82
2020/12/20 14:24:12;;;;;;;14.18;10.05;;;3.00;92.90;;;;;;5115459;28;20038;-84
2020/12/20 14:26:39;;;;;;;12.48;7.95;;;2.90;93.40;;;;;;5115354;28;20023;-82
2020/12/20 14:29:05;;;;;;;10.93;8.40;;;2.70;93.70;;;;;;5097804;28;20036;-84
2020/12/20 14:31:32;;;;;;;11.93;8.02;;;2.60;93.80;;;;;;5114864;28;20023;-84
2020/12/20 14:33:58;;;;;;;11.38;8.05;;;2.50;94.10;;;;;;5114991;28;20097;-84
2020/12/20 14:36:28;;;;;;;12.10;8.38;;;2.50;94.80;;;;;;5115400;28;20068;-81
2020/12/20 14:38:54;;;;;;;10.93;7.65;;;2.40;94.40;;;;;;5098383;28;20026;-83
2020/12/20 14:41:20;;;;;;;12.05;7.95;;;2.50;94.90;;;;;;5114585;28;20034;-83
2020/12/20 14:43:46;;;;;;;11.75;8.65;;;2.40;94.90;;;;;;5114968;28;20026;-84
2020/12/20 14:46:13;;;;;;;13.15;8.23;;;2.40;94.90;;;;;;5115930;28;20069;-85
2020/12/20 14:48:39;;;;;;;13.68;8.70;;;2.40;94.50;;;;;;5114439;28;20019;-84
2020/12/20 14:51:05;;;;;;;11.98;8.13;;;2.30;94.90;;;;;;5114562;28;20493;-84
2020/12/20 14:53:31;;;;;;;13.05;7.75;;;2.30;94.70;;;;;;5115854;28;20502;-84
2020/12/20 14:55:57;;;;;;;11.60;8.18;;;2.30;94.90;;;;;;5115023;28;20481;-83
2020/12/20 14:58:23;;;;;;;13.18;8.75;;;2.20;94.80;;;;;;5114032;28;20016;-84
2020/12/20 15:00:48;;;;;;;11.00;8.48;;;2.20;95.00;;;;;;5114422;28;20466;-84
2020/12/20 15:03:14;;;;;;;12.38;8.95;;;2.10;94.80;;;;;;5114433;28;20382;-85
2020/12/20 15:05:39;;;;;;;12.00;7.97;;;2.10;95.40;;;;;;5115158;28;20061;-82
2020/12/20 15:08:05;;;;;;;13.15;9.00;;;2.10;95.10;;;;;;5115297;28;20088;-83
2020/12/20 15:10:31;;;;;;;11.35;8.45;;;2.90;99.90;;;;;;5115235;28;20791;-83
2020/12/20 15:12:56;;;;;;;11.60;8.60;;;2.70;97.70;;;;;;5116711;28;20450;-83